sensor_id;sensor_type;location;lat;lon;timestamp;P1;durP1;ratioP1;P2;durP2;ratioP2
11747;SDS011;5931;48.832;9.072;2024-02-16T00:02:18;10.87;;;4.30;;
11747;SDS011;5931;48.832;9.072;2024-02-16T00:04:43;8.80;;;4.70;;
11747;SDS011;5931;48.832;9.072;2024-02-16T00:07:09;5.20;;;3.70;;
11747;SDS011;5931;48.832;9.072;2024-02-16T00:09:35;5.97;;;3.93;;
11747;SDS011;5931;48.832;9.072;2024-02-16T00:12:01;8.07;;;3.60;;
11747;SDS011;5931;48.832;9.072;2024-02-16T00:14:27;5.73;;;3.30;;
11747;SDS011;5931;48.832;9.072;2024-02-16T00:16:53;3.47;;;3.13;;
11747;SDS011;5931;48.832;9.072;2024-02-16T00:19:19;6.07;;;3.90;;
11747;SDS011;5931;48.832;9.072;2024-02-16T00:21:44;12.83;;;4.47;;
11747;SDS011;5931;48.832;9.072;2024-02-16T00:24:10;7.53;;;4.70;;
11747;SDS011;5931;48.832;9.072;2024-02-16T00:26:36;8.23;;;4.00;;
11747;SDS011;5931;48.832;9.072;2024-02-16T00:29:04;6.43;;;3.80;;
11747;SDS011;5931;48.832;9.072;2024-02-16T00:31:30;6.80;;;3.50;;
11747;SDS011;5931;48.832;9.072;2024-02-16T00:33:56;7.63;;;3.67;;
11747;SDS011;5931;48.832;9.072;2024-02-16T00:36:22;5.73;;;3.70;;
11747;SDS011;5931;48.832;9.072;2024-02-16T00:38:49;4.20;;;3.27;;
11747;SDS011;5931;48.832;9.072;2024-02-16T00:41:21;8.63;;;3.77;;
11747;SDS011;5931;48.832;9.072;2024-02-16T00:43:48;8.77;;;3.73;;
11747;SDS011;5931;48.832;9.072;2024-02-16T00:46:14;5.60;;;3.73;;
11747;SDS011;5931;48.832;9.072;2024-02-16T00:48:40;6.20;;;3.60;;
11747;SDS011;5931;48.832;9.072;2024-02-16T00:51:06;5.90;;;3.63;;
11747;SDS011;5931;48.832;9.072;2024-02-16T00:53:32;5.90;;;3.20;;
11747;SDS011;5931;48.832;9.072;2024-02-16T00:55:57;5.50;;;4.13;;
11747;SDS011;5931;48.832;9.072;2024-02-16T00:58:23;4.50;;;3.53;;
11747;SDS011;5931;48.832;9.072;2024-02-16T01:00:49;9.47;;;4.00;;
11747;SDS011;5931;48.832;9.072;2024-02-16T01:03:15;4.37;;;3.43;;
11747;SDS011;5931;48.832;9.072;2024-02-16T01:05:41;5.70;;;3.73;;
11747;SDS011;5931;48.832;9.072;2024-02-16T01:08:06;5.83;;;3.63;;
11747;SDS011;5931;48.832;9.072;2024-02-16T01:10:32;10.10;;;4.80;;
11747;SDS011;5931;48.832;9.072;2024-02-16T01:12:58;6.83;;;4.50;;
11747;SDS011;5931;48.832;9.072;2024-02-16T01:15:24;6.50;;;4.47;;
11747;SDS011;5931;48.832;9.072;2024-02-16T01:17:49;8.27;;;3.63;;
11747;SDS011;5931;48.832;9.072;2024-02-16T01:20:15;4.03;;;3.20;;
11747;SDS011;5931;48.832;9.072;2024-02-16T01:22:41;5.50;;;4.00;;
11747;SDS011;5931;48.832;9.072;2024-02-16T01:25:08;6.90;;;3.13;;
11747;SDS011;5931;48.832;9.072;2024-02-16T01:27:34;7.47;;;3.10;;
11747;SDS011;5931;48.832;9.072;2024-02-16T01:30:00;5.00;;;3.60;;
11747;SDS011;5931;48.832;9.072;2024-02-16T01:32:26;6.57;;;4.07;;
11747;SDS011;5931;48.832;9.072;2024-02-16T01:34:52;9.83;;;3.13;;
11747;SDS011;5931;48.832;9.072;2024-02-16T01:37:18;7.17;;;3.50;;
11747;SDS011;5931;48.832;9.072;2024-02-16T01:39:44;6.77;;;2.90;;
11747;SDS011;5931;48.832;9.072;2024-02-16T01:42:10;4.50;;;3.10;;
11747;SDS011;5931;48.832;9.072;2024-02-16T01:44:36;4.53;;;2.97;;
11747;SDS011;5931;48.832;9.072;2024-02-16T01:47:03;4.77;;;3.83;;
11747;SDS011;5931;48.832;9.072;2024-02-16T01:49:29;4.40;;;2.77;;
11747;SDS011;5931;48.832;9.072;2024-02-16T01:51:56;4.20;;;3.50;;
11747;SDS011;5931;48.832;9.072;2024-02-16T01:54:22;4.20;;;3.50;;
11747;SDS011;5931;48.832;9.072;2024-02-16T01:56:48;6.67;;;3.13;;
11747;SDS011;5931;48.832;9.072;2024-02-16T01:59:16;6.03;;;3.40;;
11747;SDS011;5931;48.832;9.072;2024-02-16T02:01:42;5.90;;;3.17;;
11747;SDS011;5931;48.832;9.072;2024-02-16T02:04:08;5.40;;;3.50;;
11747;SDS011;5931;48.832;9.072;2024-02-16T02:06:34;6.30;;;3.67;;
11747;SDS011;5931;48.832;9.072;2024-02-16T02:09:00;6.30;;;3.20;;
11747;SDS011;5931;48.832;9.072;2024-02-16T02:11:26;4.77;;;3.43;;
11747;SDS011;5931;48.832;9.072;2024-02-16T02:13:52;4.87;;;3.63;;
11747;SDS011;5931;48.832;9.072;2024-02-16T02:16:18;12.10;;;5.67;;
11747;SDS011;5931;48.832;9.072;2024-02-16T02:18:46;6.10;;;3.70;;
11747;SDS011;5931;48.832;9.072;2024-02-16T02:21:12;5.37;;;3.43;;
11747;SDS011;5931;48.832;9.072;2024-02-16T02:23:40;4.43;;;3.50;;
11747;SDS011;5931;48.832;9.072;2024-02-16T02:26:06;6.47;;;3.73;;
11747;SDS011;5931;48.832;9.072;2024-02-16T02:28:32;5.97;;;3.33;;
11747;SDS011;5931;48.832;9.072;2024-02-16T02:30:59;4.50;;;3.73;;
11747;SDS011;5931;48.832;9.072;2024-02-16T02:33:25;6.00;;;3.57;;
11747;SDS011;5931;48.832;9.072;2024-02-16T02:35:51;5.27;;;3.07;;
11747;SDS011;5931;48.832;9.072;2024-02-16T02:38:17;4.67;;;3.30;;
11747;SDS011;5931;48.832;9.072;2024-02-16T02:40:42;3.57;;;3.17;;
11747;SDS011;5931;48.832;9.072;2024-02-16T02:43:08;5.73;;;3.20;;
11747;SDS011;5931;48.832;9.072;2024-02-16T02:45:34;3.67;;;2.87;;
11747;SDS011;5931;48.832;9.072;2024-02-16T02:48:00;5.83;;;3.73;;
11747;SDS011;5931;48.832;9.072;2024-02-16T02:50:26;4.27;;;3.07;;
11747;SDS011;5931;48.832;9.072;2024-02-16T02:52:52;6.17;;;3.17;;
11747;SDS011;5931;48.832;9.072;2024-02-16T02:55:17;3.70;;;2.83;;
11747;SDS011;5931;48.832;9.072;2024-02-16T02:57:43;7.33;;;4.10;;
11747;SDS011;5931;48.832;9.072;2024-02-16T03:00:09;4.13;;;3.73;;
11747;SDS011;5931;48.832;9.072;2024-02-16T03:02:39;7.73;;;3.40;;
11747;SDS011;5931;48.832;9.072;2024-02-16T03:05:05;5.27;;;3.50;;
11747;SDS011;5931;48.832;9.072;2024-02-16T03:07:35;5.53;;;4.20;;
11747;SDS011;5931;48.832;9.072;2024-02-16T03:10:01;5.50;;;3.17;;
11747;SDS011;5931;48.832;9.072;2024-02-16T03:12:28;4.30;;;3.47;;
11747;SDS011;5931;48.832;9.072;2024-02-16T03:14:54;5.60;;;3.77;;
11747;SDS011;5931;48.832;9.072;2024-02-16T03:17:20;6.50;;;4.07;;
11747;SDS011;5931;48.832;9.072;2024-02-16T03:19:46;8.47;;;4.07;;
11747;SDS011;5931;48.832;9.072;2024-02-16T03:22:12;4.97;;;3.70;;
11747;SDS011;5931;48.832;9.072;2024-02-16T03:24:38;6.20;;;3.57;;
11747;SDS011;5931;48.832;9.072;2024-02-16T03:27:03;4.07;;;3.00;;
11747;SDS011;5931;48.832;9.072;2024-02-16T03:29:30;5.00;;;3.23;;
11747;SDS011;5931;48.832;9.072;2024-02-16T03:31:55;4.50;;;3.60;;
11747;SDS011;5931;48.832;9.072;2024-02-16T03:34:21;8.00;;;4.60;;
11747;SDS011;5931;48.832;9.072;2024-02-16T03:36:47;4.23;;;3.53;;
11747;SDS011;5931;48.832;9.072;2024-02-16T03:39:13;4.30;;;3.10;;
11747;SDS011;5931;48.832;9.072;2024-02-16T03:41:45;3.63;;;3.00;;
11747;SDS011;5931;48.832;9.072;2024-02-16T03:44:14;5.53;;;3.83;;
11747;SDS011;5931;48.832;9.072;2024-02-16T03:46:41;6.93;;;4.53;;
11747;SDS011;5931;48.832;9.072;2024-02-16T03:49:08;6.73;;;4.10;;
11747;SDS011;5931;48.832;9.072;2024-02-16T03:51:35;4.90;;;3.60;;
11747;SDS011;5931;48.832;9.072;2024-02-16T03:54:01;6.60;;;3.93;;
11747;SDS011;5931;48.832;9.072;2024-02-16T03:56:29;8.07;;;4.10;;
11747;SDS011;5931;48.832;9.072;2024-02-16T03:58:55;7.13;;;3.50;;
11747;SDS011;5931;48.832;9.072;2024-02-16T04:01:21;4.57;;;3.60;;
11747;SDS011;5931;48.832;9.072;2024-02-16T04:03:47;5.97;;;3.50;;
11747;SDS011;5931;48.832;9.072;2024-02-16T04:06:13;5.77;;;3.30;;
11747;SDS011;5931;48.832;9.072;2024-02-16T04:08:39;6.30;;;4.03;;
11747;SDS011;5931;48.832;9.072;2024-02-16T04:11:05;6.93;;;4.23;;
11747;SDS011;5931;48.832;9.072;2024-02-16T04:13:31;7.27;;;4.07;;
11747;SDS011;5931;48.832;9.072;2024-02-16T04:15:57;5.67;;;3.87;;
11747;SDS011;5931;48.832;9.072;2024-02-16T04:18:23;7.10;;;4.17;;
11747;SDS011;5931;48.832;9.072;2024-02-16T04:20:49;4.30;;;3.50;;
11747;SDS011;5931;48.832;9.072;2024-02-16T04:23:15;5.07;;;3.97;;
11747;SDS011;5931;48.832;9.072;2024-02-16T04:25:41;6.80;;;4.40;;
11747;SDS011;5931;48.832;9.072;2024-02-16T04:28:06;5.60;;;3.77;;
11747;SDS011;5931;48.832;9.072;2024-02-16T04:30:32;6.50;;;4.50;;
11747;SDS011;5931;48.832;9.072;2024-02-16T04:32:58;8.90;;;4.30;;
11747;SDS011;5931;48.832;9.072;2024-02-16T04:35:24;7.40;;;3.80;;
11747;SDS011;5931;48.832;9.072;2024-02-16T04:37:49;5.10;;;3.53;;
11747;SDS011;5931;48.832;9.072;2024-02-16T04:40:15;6.53;;;3.80;;
11747;SDS011;5931;48.832;9.072;2024-02-16T04:42:41;9.47;;;4.43;;
11747;SDS011;5931;48.832;9.072;2024-02-16T04:45:07;6.13;;;4.00;;
11747;SDS011;5931;48.832;9.072;2024-02-16T04:47:36;6.67;;;3.67;;
11747;SDS011;5931;48.832;9.072;2024-02-16T04:50:02;6.47;;;4.20;;
11747;SDS011;5931;48.832;9.072;2024-02-16T04:52:28;5.67;;;3.83;;
11747;SDS011;5931;48.832;9.072;2024-02-16T04:54:54;7.83;;;4.10;;
11747;SDS011;5931;48.832;9.072;2024-02-16T04:57:19;7.97;;;3.40;;
11747;SDS011;5931;48.832;9.072;2024-02-16T04:59:45;6.23;;;4.90;;
11747;SDS011;5931;48.832;9.072;2024-02-16T05:02:11;8.90;;;4.93;;
11747;SDS011;5931;48.832;9.072;2024-02-16T05:04:37;9.03;;;4.40;;
11747;SDS011;5931;48.832;9.072;2024-02-16T05:09:31;6.60;;;3.60;;
11747;SDS011;5931;48.832;9.072;2024-02-16T05:11:57;6.37;;;4.10;;
11747;SDS011;5931;48.832;9.072;2024-02-16T05:14:23;5.23;;;4.20;;
11747;SDS011;5931;48.832;9.072;2024-02-16T05:16:49;7.53;;;4.40;;
11747;SDS011;5931;48.832;9.072;2024-02-16T05:19:16;5.90;;;4.30;;
11747;SDS011;5931;48.832;9.072;2024-02-16T05:21:41;6.00;;;4.10;;
11747;SDS011;5931;48.832;9.072;2024-02-16T05:24:07;5.10;;;3.90;;
11747;SDS011;5931;48.832;9.072;2024-02-16T05:26:33;8.70;;;4.70;;
11747;SDS011;5931;48.832;9.072;2024-02-16T05:28:59;7.53;;;4.17;;
11747;SDS011;5931;48.832;9.072;2024-02-16T05:31:25;4.63;;;3.63;;
11747;SDS011;5931;48.832;9.072;2024-02-16T05:33:51;7.30;;;4.33;;
11747;SDS011;5931;48.832;9.072;2024-02-16T05:36:20;7.83;;;4.37;;
11747;SDS011;5931;48.832;9.072;2024-02-16T05:38:49;12.80;;;5.27;;
11747;SDS011;5931;48.832;9.072;2024-02-16T05:41:16;11.73;;;5.63;;
11747;SDS011;5931;48.832;9.072;2024-02-16T05:43:43;7.20;;;4.87;;
11747;SDS011;5931;48.832;9.072;2024-02-16T05:46:13;11.43;;;4.30;;
11747;SDS011;5931;48.832;9.072;2024-02-16T05:48:39;7.77;;;5.00;;
11747;SDS011;5931;48.832;9.072;2024-02-16T05:51:06;8.57;;;4.87;;
11747;SDS011;5931;48.832;9.072;2024-02-16T05:53:32;6.70;;;5.00;;
11747;SDS011;5931;48.832;9.072;2024-02-16T05:55:58;6.77;;;4.57;;
11747;SDS011;5931;48.832;9.072;2024-02-16T05:58:25;6.73;;;4.30;;
11747;SDS011;5931;48.832;9.072;2024-02-16T06:00:51;6.27;;;4.80;;
11747;SDS011;5931;48.832;9.072;2024-02-16T06:03:17;8.67;;;4.00;;
11747;SDS011;5931;48.832;9.072;2024-02-16T06:05:43;6.67;;;4.83;;
11747;SDS011;5931;48.832;9.072;2024-02-16T06:08:11;4.67;;;4.07;;
11747;SDS011;5931;48.832;9.072;2024-02-16T06:10:38;6.20;;;4.60;;
11747;SDS011;5931;48.832;9.072;2024-02-16T06:13:04;6.30;;;4.50;;
11747;SDS011;5931;48.832;9.072;2024-02-16T06:15:31;8.53;;;4.80;;
11747;SDS011;5931;48.832;9.072;2024-02-16T06:17:59;8.10;;;5.30;;
11747;SDS011;5931;48.832;9.072;2024-02-16T06:20:25;10.93;;;7.30;;
11747;SDS011;5931;48.832;9.072;2024-02-16T06:22:51;7.90;;;5.37;;
11747;SDS011;5931;48.832;9.072;2024-02-16T06:25:17;8.57;;;5.70;;
11747;SDS011;5931;48.832;9.072;2024-02-16T06:27:44;9.30;;;4.90;;
11747;SDS011;5931;48.832;9.072;2024-02-16T06:30:11;8.83;;;5.60;;
11747;SDS011;5931;48.832;9.072;2024-02-16T06:32:38;7.43;;;4.87;;
11747;SDS011;5931;48.832;9.072;2024-02-16T06:35:06;6.30;;;5.20;;
11747;SDS011;5931;48.832;9.072;2024-02-16T06:37:33;5.73;;;5.00;;
11747;SDS011;5931;48.832;9.072;2024-02-16T06:39:59;6.90;;;5.60;;
11747;SDS011;5931;48.832;9.072;2024-02-16T06:42:24;8.20;;;5.20;;
11747;SDS011;5931;48.832;9.072;2024-02-16T06:44:50;7.93;;;5.53;;
11747;SDS011;5931;48.832;9.072;2024-02-16T06:47:16;8.93;;;5.43;;
11747;SDS011;5931;48.832;9.072;2024-02-16T06:49:42;11.23;;;5.10;;
11747;SDS011;5931;48.832;9.072;2024-02-16T06:52:08;14.77;;;5.60;;
11747;SDS011;5931;48.832;9.072;2024-02-16T06:54:35;9.57;;;6.00;;
11747;SDS011;5931;48.832;9.072;2024-02-16T06:57:00;10.50;;;5.57;;
11747;SDS011;5931;48.832;9.072;2024-02-16T06:59:26;8.70;;;5.00;;
11747;SDS011;5931;48.832;9.072;2024-02-16T07:01:52;8.70;;;5.67;;
11747;SDS011;5931;48.832;9.072;2024-02-16T07:04:18;9.20;;;5.93;;
11747;SDS011;5931;48.832;9.072;2024-02-16T07:06:44;6.67;;;4.80;;
11747;SDS011;5931;48.832;9.072;2024-02-16T07:09:09;13.80;;;5.93;;
11747;SDS011;5931;48.832;9.072;2024-02-16T07:11:36;10.70;;;6.23;;
11747;SDS011;5931;48.832;9.072;2024-02-16T07:14:02;15.17;;;7.33;;
11747;SDS011;5931;48.832;9.072;2024-02-16T07:16:31;18.87;;;9.57;;
11747;SDS011;5931;48.832;9.072;2024-02-16T07:18:57;12.10;;;7.07;;
11747;SDS011;5931;48.832;9.072;2024-02-16T07:21:23;10.10;;;5.70;;
11747;SDS011;5931;48.832;9.072;2024-02-16T07:23:52;11.97;;;6.40;;
11747;SDS011;5931;48.832;9.072;2024-02-16T07:26:18;12.33;;;7.37;;
11747;SDS011;5931;48.832;9.072;2024-02-16T07:28:44;10.63;;;7.70;;
11747;SDS011;5931;48.832;9.072;2024-02-16T07:31:10;9.30;;;6.80;;
11747;SDS011;5931;48.832;9.072;2024-02-16T07:33:36;8.33;;;5.20;;
11747;SDS011;5931;48.832;9.072;2024-02-16T07:36:02;6.83;;;4.60;;
11747;SDS011;5931;48.832;9.072;2024-02-16T07:38:28;7.90;;;4.67;;
11747;SDS011;5931;48.832;9.072;2024-02-16T07:40:54;9.03;;;5.27;;
11747;SDS011;5931;48.832;9.072;2024-02-16T07:43:20;5.90;;;4.70;;
11747;SDS011;5931;48.832;9.072;2024-02-16T07:45:49;7.13;;;5.10;;
11747;SDS011;5931;48.832;9.072;2024-02-16T07:48:19;7.33;;;4.67;;
11747;SDS011;5931;48.832;9.072;2024-02-16T07:50:46;7.77;;;4.87;;
11747;SDS011;5931;48.832;9.072;2024-02-16T07:53:13;7.87;;;5.27;;
11747;SDS011;5931;48.832;9.072;2024-02-16T07:55:39;8.93;;;5.80;;
11747;SDS011;5931;48.832;9.072;2024-02-16T07:58:05;8.97;;;6.57;;
11747;SDS011;5931;48.832;9.072;2024-02-16T08:00:31;10.90;;;6.60;;
11747;SDS011;5931;48.832;9.072;2024-02-16T08:02:56;15.73;;;7.33;;
11747;SDS011;5931;48.832;9.072;2024-02-16T08:05:22;12.10;;;6.27;;
11747;SDS011;5931;48.832;9.072;2024-02-16T08:07:49;10.97;;;6.53;;
11747;SDS011;5931;48.832;9.072;2024-02-16T08:10:18;8.63;;;6.27;;
11747;SDS011;5931;48.832;9.072;2024-02-16T08:12:46;11.00;;;6.33;;
11747;SDS011;5931;48.832;9.072;2024-02-16T08:15:12;10.43;;;5.60;;
11747;SDS011;5931;48.832;9.072;2024-02-16T08:17:39;8.50;;;5.47;;
11747;SDS011;5931;48.832;9.072;2024-02-16T08:20:05;8.20;;;5.40;;
11747;SDS011;5931;48.832;9.072;2024-02-16T08:22:31;11.27;;;5.70;;
11747;SDS011;5931;48.832;9.072;2024-02-16T08:24:58;8.27;;;5.30;;
11747;SDS011;5931;48.832;9.072;2024-02-16T08:27:24;11.60;;;4.77;;
11747;SDS011;5931;48.832;9.072;2024-02-16T08:29:50;6.97;;;5.20;;
11747;SDS011;5931;48.832;9.072;2024-02-16T08:32:18;6.67;;;5.50;;
11747;SDS011;5931;48.832;9.072;2024-02-16T08:34:45;7.70;;;5.20;;
11747;SDS011;5931;48.832;9.072;2024-02-16T08:37:13;7.57;;;5.30;;
11747;SDS011;5931;48.832;9.072;2024-02-16T08:39:40;7.10;;;4.70;;
11747;SDS011;5931;48.832;9.072;2024-02-16T08:42:06;5.90;;;4.80;;
11747;SDS011;5931;48.832;9.072;2024-02-16T08:44:39;6.13;;;4.73;;
11747;SDS011;5931;48.832;9.072;2024-02-16T08:47:06;6.77;;;4.37;;
11747;SDS011;5931;48.832;9.072;2024-02-16T08:49:33;5.93;;;4.40;;
11747;SDS011;5931;48.832;9.072;2024-02-16T08:52:00;5.20;;;4.60;;
11747;SDS011;5931;48.832;9.072;2024-02-16T08:54:26;7.20;;;4.73;;
11747;SDS011;5931;48.832;9.072;2024-02-16T08:56:55;7.83;;;4.80;;
11747;SDS011;5931;48.832;9.072;2024-02-16T08:59:20;4.90;;;4.40;;
11747;SDS011;5931;48.832;9.072;2024-02-16T09:01:47;5.17;;;4.00;;
11747;SDS011;5931;48.832;9.072;2024-02-16T09:04:13;7.40;;;4.23;;
11747;SDS011;5931;48.832;9.072;2024-02-16T09:06:39;5.60;;;4.00;;
11747;SDS011;5931;48.832;9.072;2024-02-16T09:09:04;5.80;;;3.97;;
11747;SDS011;5931;48.832;9.072;2024-02-16T09:11:32;8.00;;;4.53;;
11747;SDS011;5931;48.832;9.072;2024-02-16T09:13:59;9.30;;;3.97;;
11747;SDS011;5931;48.832;9.072;2024-02-16T09:16:25;7.03;;;3.80;;
11747;SDS011;5931;48.832;9.072;2024-02-16T09:18:51;8.77;;;4.10;;
11747;SDS011;5931;48.832;9.072;2024-02-16T09:21:17;5.47;;;3.80;;
11747;SDS011;5931;48.832;9.072;2024-02-16T09:23:56;8.93;;;4.60;;
11747;SDS011;5931;48.832;9.072;2024-02-16T09:26:27;7.63;;;4.10;;
11747;SDS011;5931;48.832;9.072;2024-02-16T09:28:56;5.23;;;3.67;;
11747;SDS011;5931;48.832;9.072;2024-02-16T09:31:22;3.57;;;3.03;;
11747;SDS011;5931;48.832;9.072;2024-02-16T09:33:48;4.20;;;3.47;;
11747;SDS011;5931;48.832;9.072;2024-02-16T09:36:17;8.33;;;3.30;;
11747;SDS011;5931;48.832;9.072;2024-02-16T09:38:43;3.33;;;2.93;;
11747;SDS011;5931;48.832;9.072;2024-02-16T09:41:08;2.63;;;2.30;;
11747;SDS011;5931;48.832;9.072;2024-02-16T09:43:34;5.77;;;3.60;;
11747;SDS011;5931;48.832;9.072;2024-02-16T09:46:00;6.77;;;3.40;;
11747;SDS011;5931;48.832;9.072;2024-02-16T09:48:26;4.13;;;2.87;;
11747;SDS011;5931;48.832;9.072;2024-02-16T09:50:53;3.50;;;2.53;;
11747;SDS011;5931;48.832;9.072;2024-02-16T09:53:20;4.70;;;2.77;;
11747;SDS011;5931;48.832;9.072;2024-02-16T09:55:49;5.63;;;2.83;;
11747;SDS011;5931;48.832;9.072;2024-02-16T09:58:16;4.03;;;2.53;;
11747;SDS011;5931;48.832;9.072;2024-02-16T10:00:54;4.17;;;2.50;;
11747;SDS011;5931;48.832;9.072;2024-02-16T10:03:25;3.50;;;2.30;;
11747;SDS011;5931;48.832;9.072;2024-02-16T10:06:06;3.90;;;2.43;;
11747;SDS011;5931;48.832;9.072;2024-02-16T10:08:34;2.27;;;1.97;;
11747;SDS011;5931;48.832;9.072;2024-02-16T10:11:01;3.40;;;2.00;;
11747;SDS011;5931;48.832;9.072;2024-02-16T10:13:28;3.97;;;2.10;;
11747;SDS011;5931;48.832;9.072;2024-02-16T10:16:03;6.63;;;2.13;;
11747;SDS011;5931;48.832;9.072;2024-02-16T10:18:31;2.47;;;1.80;;
11747;SDS011;5931;48.832;9.072;2024-02-16T10:20:57;4.57;;;2.57;;
11747;SDS011;5931;48.832;9.072;2024-02-16T10:23:23;2.23;;;1.67;;
11747;SDS011;5931;48.832;9.072;2024-02-16T10:25:48;2.90;;;2.10;;
11747;SDS011;5931;48.832;9.072;2024-02-16T10:28:14;2.73;;;1.93;;
11747;SDS011;5931;48.832;9.072;2024-02-16T10:30:42;2.80;;;2.27;;
11747;SDS011;5931;48.832;9.072;2024-02-16T10:33:09;4.83;;;2.20;;
11747;SDS011;5931;48.832;9.072;2024-02-16T10:35:37;2.70;;;1.87;;
11747;SDS011;5931;48.832;9.072;2024-02-16T10:38:04;3.30;;;1.90;;
11747;SDS011;5931;48.832;9.072;2024-02-16T10:40:41;2.40;;;2.00;;
11747;SDS011;5931;48.832;9.072;2024-02-16T10:43:08;5.47;;;1.90;;
11747;SDS011;5931;48.832;9.072;2024-02-16T10:45:36;4.80;;;2.33;;
11747;SDS011;5931;48.832;9.072;2024-02-16T10:48:03;2.43;;;2.13;;
11747;SDS011;5931;48.832;9.072;2024-02-16T10:50:31;5.67;;;2.23;;
11747;SDS011;5931;48.832;9.072;2024-02-16T10:55:38;2.13;;;1.80;;
11747;SDS011;5931;48.832;9.072;2024-02-16T10:58:06;3.83;;;2.30;;
11747;SDS011;5931;48.832;9.072;2024-02-16T11:00:33;4.00;;;1.80;;
11747;SDS011;5931;48.832;9.072;2024-02-16T11:03:01;4.40;;;2.70;;
11747;SDS011;5931;48.832;9.072;2024-02-16T11:05:35;2.50;;;2.27;;
11747;SDS011;5931;48.832;9.072;2024-02-16T11:08:04;4.97;;;2.10;;
11747;SDS011;5931;48.832;9.072;2024-02-16T11:10:37;3.80;;;2.17;;
11747;SDS011;5931;48.832;9.072;2024-02-16T11:13:03;2.87;;;1.83;;
11747;SDS011;5931;48.832;9.072;2024-02-16T11:15:38;4.20;;;2.00;;
11747;SDS011;5931;48.832;9.072;2024-02-16T11:18:04;4.93;;;1.90;;
11747;SDS011;5931;48.832;9.072;2024-02-16T11:20:36;2.83;;;2.00;;
11747;SDS011;5931;48.832;9.072;2024-02-16T11:23:06;2.73;;;1.93;;
11747;SDS011;5931;48.832;9.072;2024-02-16T11:25:34;3.03;;;2.17;;
11747;SDS011;5931;48.832;9.072;2024-02-16T11:28:01;3.47;;;2.20;;
11747;SDS011;5931;48.832;9.072;2024-02-16T11:30:34;2.50;;;2.00;;
11747;SDS011;5931;48.832;9.072;2024-02-16T11:33:01;2.97;;;2.00;;
11747;SDS011;5931;48.832;9.072;2024-02-16T11:35:27;2.27;;;1.90;;
11747;SDS011;5931;48.832;9.072;2024-02-16T11:37:52;2.03;;;1.90;;
11747;SDS011;5931;48.832;9.072;2024-02-16T11:40:21;2.73;;;2.17;;
11747;SDS011;5931;48.832;9.072;2024-02-16T11:42:47;6.33;;;2.27;;
11747;SDS011;5931;48.832;9.072;2024-02-16T11:45:13;4.47;;;2.17;;
11747;SDS011;5931;48.832;9.072;2024-02-16T11:47:38;2.20;;;1.63;;
11747;SDS011;5931;48.832;9.072;2024-02-16T11:52:37;7.93;;;2.30;;
11747;SDS011;5931;48.832;9.072;2024-02-16T11:55:04;5.67;;;2.67;;
11747;SDS011;5931;48.832;9.072;2024-02-16T11:57:33;4.33;;;2.43;;
11747;SDS011;5931;48.832;9.072;2024-02-16T12:00:01;3.87;;;2.73;;
11747;SDS011;5931;48.832;9.072;2024-02-16T12:02:36;2.80;;;2.10;;
11747;SDS011;5931;48.832;9.072;2024-02-16T12:05:02;3.03;;;1.80;;
11747;SDS011;5931;48.832;9.072;2024-02-16T12:07:29;4.00;;;2.10;;
11747;SDS011;5931;48.832;9.072;2024-02-16T12:09:58;3.53;;;2.10;;
11747;SDS011;5931;48.832;9.072;2024-02-16T12:12:25;3.87;;;1.73;;
11747;SDS011;5931;48.832;9.072;2024-02-16T12:14:53;2.93;;;1.70;;
11747;SDS011;5931;48.832;9.072;2024-02-16T12:17:19;3.00;;;1.97;;
11747;SDS011;5931;48.832;9.072;2024-02-16T12:19:46;3.07;;;2.40;;
11747;SDS011;5931;48.832;9.072;2024-02-16T12:22:18;2.30;;;2.10;;
11747;SDS011;5931;48.832;9.072;2024-02-16T12:24:48;4.13;;;2.43;;
11747;SDS011;5931;48.832;9.072;2024-02-16T12:27:15;3.00;;;2.30;;
11747;SDS011;5931;48.832;9.072;2024-02-16T12:29:41;9.13;;;3.07;;
11747;SDS011;5931;48.832;9.072;2024-02-16T12:32:07;7.33;;;2.80;;
11747;SDS011;5931;48.832;9.072;2024-02-16T12:34:35;3.43;;;2.43;;
11747;SDS011;5931;48.832;9.072;2024-02-16T12:37:06;2.97;;;2.10;;
11747;SDS011;5931;48.832;9.072;2024-02-16T12:39:33;6.10;;;1.70;;
11747;SDS011;5931;48.832;9.072;2024-02-16T12:41:59;8.27;;;2.47;;
11747;SDS011;5931;48.832;9.072;2024-02-16T12:44:25;8.97;;;1.97;;
11747;SDS011;5931;48.832;9.072;2024-02-16T12:46:51;3.63;;;2.87;;
11747;SDS011;5931;48.832;9.072;2024-02-16T12:49:17;2.90;;;2.70;;
11747;SDS011;5931;48.832;9.072;2024-02-16T12:51:47;2.63;;;2.00;;
11747;SDS011;5931;48.832;9.072;2024-02-16T12:54:16;3.23;;;2.73;;
11747;SDS011;5931;48.832;9.072;2024-02-16T12:56:45;3.13;;;2.40;;
11747;SDS011;5931;48.832;9.072;2024-02-16T12:59:11;3.00;;;2.10;;
11747;SDS011;5931;48.832;9.072;2024-02-16T13:01:37;4.77;;;2.43;;
11747;SDS011;5931;48.832;9.072;2024-02-16T13:04:03;7.90;;;2.80;;
11747;SDS011;5931;48.832;9.072;2024-02-16T13:06:29;4.50;;;2.67;;
11747;SDS011;5931;48.832;9.072;2024-02-16T13:08:55;4.23;;;1.90;;
11747;SDS011;5931;48.832;9.072;2024-02-16T13:11:21;2.70;;;2.30;;
11747;SDS011;5931;48.832;9.072;2024-02-16T13:13:47;3.10;;;1.93;;
11747;SDS011;5931;48.832;9.072;2024-02-16T13:16:12;3.40;;;2.50;;
11747;SDS011;5931;48.832;9.072;2024-02-16T13:18:39;2.60;;;1.97;;
11747;SDS011;5931;48.832;9.072;2024-02-16T13:21:06;4.23;;;2.40;;
11747;SDS011;5931;48.832;9.072;2024-02-16T13:23:35;3.57;;;2.00;;
11747;SDS011;5931;48.832;9.072;2024-02-16T13:26:01;3.00;;;2.20;;
11747;SDS011;5931;48.832;9.072;2024-02-16T13:28:27;4.10;;;2.67;;
11747;SDS011;5931;48.832;9.072;2024-02-16T13:30:52;5.00;;;2.37;;
11747;SDS011;5931;48.832;9.072;2024-02-16T13:33:18;7.10;;;2.20;;
11747;SDS011;5931;48.832;9.072;2024-02-16T13:35:44;2.97;;;2.00;;
11747;SDS011;5931;48.832;9.072;2024-02-16T13:38:10;2.23;;;1.57;;
11747;SDS011;5931;48.832;9.072;2024-02-16T13:43:26;7.23;;;2.63;;
11747;SDS011;5931;48.832;9.072;2024-02-16T13:45:55;6.97;;;2.50;;
11747;SDS011;5931;48.832;9.072;2024-02-16T13:48:23;3.50;;;2.40;;
11747;SDS011;5931;48.832;9.072;2024-02-16T13:50:50;3.83;;;1.93;;
11747;SDS011;5931;48.832;9.072;2024-02-16T13:53:16;2.83;;;1.90;;
11747;SDS011;5931;48.832;9.072;2024-02-16T13:55:43;5.47;;;2.17;;
11747;SDS011;5931;48.832;9.072;2024-02-16T13:58:12;3.20;;;2.10;;
11747;SDS011;5931;48.832;9.072;2024-02-16T14:00:38;9.27;;;3.20;;
11747;SDS011;5931;48.832;9.072;2024-02-16T14:03:04;2.60;;;1.70;;
11747;SDS011;5931;48.832;9.072;2024-02-16T14:05:36;6.50;;;2.30;;
11747;SDS011;5931;48.832;9.072;2024-02-16T14:08:03;4.70;;;1.87;;
11747;SDS011;5931;48.832;9.072;2024-02-16T14:10:42;4.93;;;2.00;;
11747;SDS011;5931;48.832;9.072;2024-02-16T14:13:07;3.33;;;2.40;;
11747;SDS011;5931;48.832;9.072;2024-02-16T14:15:41;5.33;;;2.17;;
11747;SDS011;5931;48.832;9.072;2024-02-16T14:18:07;2.20;;;2.00;;
11747;SDS011;5931;48.832;9.072;2024-02-16T14:20:34;5.43;;;2.80;;
11747;SDS011;5931;48.832;9.072;2024-02-16T14:23:00;2.70;;;1.83;;
11747;SDS011;5931;48.832;9.072;2024-02-16T14:25:28;4.73;;;2.23;;
11747;SDS011;5931;48.832;9.072;2024-02-16T14:27:54;7.90;;;2.13;;
11747;SDS011;5931;48.832;9.072;2024-02-16T14:30:20;4.33;;;1.90;;
11747;SDS011;5931;48.832;9.072;2024-02-16T14:32:46;3.03;;;2.17;;
11747;SDS011;5931;48.832;9.072;2024-02-16T14:35:12;2.03;;;1.83;;
11747;SDS011;5931;48.832;9.072;2024-02-16T14:37:38;4.90;;;2.00;;
11747;SDS011;5931;48.832;9.072;2024-02-16T14:40:04;2.80;;;1.70;;
11747;SDS011;5931;48.832;9.072;2024-02-16T14:42:35;28.83;;;11.57;;
11747;SDS011;5931;48.832;9.072;2024-02-16T14:45:01;36.37;;;16.00;;
11747;SDS011;5931;48.832;9.072;2024-02-16T14:47:28;36.97;;;17.87;;
11747;SDS011;5931;48.832;9.072;2024-02-16T14:49:53;22.90;;;13.40;;
11747;SDS011;5931;48.832;9.072;2024-02-16T14:52:19;4.83;;;2.30;;
11747;SDS011;5931;48.832;9.072;2024-02-16T14:54:45;4.00;;;2.00;;
11747;SDS011;5931;48.832;9.072;2024-02-16T14:57:11;2.63;;;2.03;;
11747;SDS011;5931;48.832;9.072;2024-02-16T14:59:37;2.50;;;2.07;;
11747;SDS011;5931;48.832;9.072;2024-02-16T15:02:03;8.37;;;5.30;;
11747;SDS011;5931;48.832;9.072;2024-02-16T15:04:29;3.40;;;3.10;;
11747;SDS011;5931;48.832;9.072;2024-02-16T15:06:56;4.40;;;3.10;;
11747;SDS011;5931;48.832;9.072;2024-02-16T15:09:22;4.03;;;1.97;;